Time;durP1;ratioP1;P1;durP2;ratioP2;P2;SDS_P1;SDS_P2;PMS_P1;PMS_P2;Temp;Humidity;BMP_temperature;BMP_pressure;BME280_temperature;BME280_humidity;BME280_pressure;Samples;Min_cycle;Max_cycle;Signal;HPM_P1;HPM_P2
2021/05/21 00:01:34;;;;;;;1.15;0.40;;;18.30;59.60;;;;;;5051221;28;20028;-64
2021/05/21 00:03:59;;;;;;;0.30;0.30;;;18.20;59.60;;;;;;5051844;28;20097;-64
2021/05/21 00:06:25;;;;;;;0.50;0.30;;;18.10;59.60;;;;;;5052051;28;20025;-64
2021/05/21 00:08:50;;;;;;;0.43;0.30;;;18.30;59.70;;;;;;5052300;28;20028;-64
2021/05/21 00:11:16;;;;;;;1.50;0.40;;;18.00;59.50;;;;;;5052043;28;20420;-64
2021/05/21 00:13:42;;;;;;;1.17;0.50;;;18.30;59.80;;;;;;5051897;28;20146;-65
2021/05/21 00:16:08;;;;;;;1.30;0.32;;;18.10;59.70;;;;;;5052018;28;20021;-65
2021/05/21 00:18:33;;;;;;;1.50;0.40;;;18.30;60.40;;;;;;5051948;28;20063;-65
2021/05/21 00:20:59;;;;;;;0.70;0.38;;;18.30;59.80;;;;;;5051982;28;20056;-65
2021/05/21 00:23:24;;;;;;;0.65;0.30;;;18.20;59.70;;;;;;5051891;28;20017;-65
2021/05/21 00:25:50;;;;;;;0.75;0.40;;;18.00;59.60;;;;;;5051886;28;20025;-64
2021/05/21 00:28:16;;;;;;;2.92;0.47;;;18.30;59.80;;;;;;5051869;28;20031;-64
2021/05/21 00:30:41;;;;;;;1.40;0.55;;;18.20;59.80;;;;;;5051777;28;20113;-65
2021/05/21 00:33:07;;;;;;;2.53;0.40;;;18.30;59.80;;;;;;5050653;28;20075;-64
2021/05/21 00:35:32;;;;;;;1.27;0.50;;;18.20;59.80;;;;;;5051996;28;20104;-65
2021/05/21 00:37:58;;;;;;;1.35;0.43;;;18.20;59.80;;;;;;5054217;28;20029;-64
2021/05/21 00:40:24;;;;;;;1.30;0.77;;;18.70;60.10;;;;;;5055497;28;20067;-64
2021/05/21 00:42:49;;;;;;;1.30;0.70;;;18.20;59.80;;;;;;5055663;28;20029;-64
2021/05/21 00:45:15;;;;;;;1.45;0.45;;;18.40;59.90;;;;;;5055698;28;20061;-64
2021/05/21 00:47:44;;;;;;;2.40;0.50;;;18.20;59.80;;;;;;5055301;28;20036;-64
2021/05/21 00:50:10;;;;;;;4.45;0.70;;;18.20;59.80;;;;;;5055301;28;20032;-64
2021/05/21 00:52:38;;;;;;;2.03;0.68;;;18.20;59.90;;;;;;5055420;28;20045;-64
2021/05/21 00:55:08;;;;;;;2.80;0.80;;;18.20;59.80;;;;;;5055471;28;20135;-64
2021/05/21 00:57:35;;;;;;;1.35;0.68;;;18.20;59.80;;;;;;5055196;28;20499;-65
2021/05/21 01:00:00;;;;;;;1.67;0.52;;;18.30;59.90;;;;;;5055156;28;20079;-64
2021/05/21 01:02:26;;;;;;;6.40;1.13;;;18.00;59.80;;;;;;5055297;28;20464;-64
2021/05/21 01:04:52;;;;;;;1.88;0.73;;;18.20;59.80;;;;;;5054817;28;20057;-64
2021/05/21 01:07:17;;;;;;;3.55;0.90;;;18.00;59.80;;;;;;5054842;28;20028;-64
2021/05/21 01:09:43;;;;;;;2.20;0.47;;;18.10;59.80;;;;;;5054914;28;20057;-64
2021/05/21 01:12:09;;;;;;;1.55;0.63;;;18.00;59.80;;;;;;5054706;28;20021;-65
2021/05/21 01:14:34;;;;;;;2.72;0.80;;;18.10;59.90;;;;;;5054840;28;20029;-65
2021/05/21 01:17:00;;;;;;;2.53;0.77;;;18.20;59.90;;;;;;5054970;28;20017;-64
2021/05/21 01:19:26;;;;;;;4.13;0.93;;;18.10;59.90;;;;;;5053505;28;20036;-65
2021/05/21 01:21:52;;;;;;;2.70;0.90;;;18.10;59.90;;;;;;5055091;28;20025;-65
2021/05/21 01:24:18;;;;;;;1.88;0.80;;;18.10;59.90;;;;;;5054523;28;20040;-65
2021/05/21 01:26:47;;;;;;;3.83;0.82;;;18.10;59.90;;;;;;5054566;28;20020;-65
2021/05/21 01:29:12;;;;;;;1.67;0.60;;;18.10;59.90;;;;;;5054493;28;20036;-64
2021/05/21 01:31:43;;;;;;;2.05;0.73;;;18.10;59.90;;;;;;5054489;28;20025;-65
2021/05/21 01:34:09;;;;;;;5.88;1.05;;;18.10;59.90;;;;;;5054584;28;20535;-65
2021/05/21 01:36:35;;;;;;;3.30;1.02;;;18.10;59.90;;;;;;5054497;28;20067;-65
2021/05/21 01:39:06;;;;;;;2.30;0.95;;;18.10;59.90;;;;;;5054421;28;20056;-65
2021/05/21 01:41:34;;;;;;;1.70;0.70;;;18.00;59.90;;;;;;5054406;28;20021;-65
2021/05/21 01:44:03;;;;;;;2.28;0.75;;;17.90;59.80;;;;;;5054301;28;20422;-65
2021/05/21 01:46:28;;;;;;;4.40;1.17;;;18.10;59.90;;;;;;5054328;28;20025;-65
2021/05/21 01:48:54;;;;;;;2.85;0.90;;;18.10;59.90;;;;;;5053961;28;20028;-64
2021/05/21 01:51:19;;;;;;;3.90;1.05;;;18.10;60.00;;;;;;5054148;28;20495;-65
2021/05/21 01:53:45;;;;;;;2.15;0.80;;;18.10;60.00;;;;;;5054342;28;20060;-64
2021/05/21 01:56:11;;;;;;;4.20;0.90;;;18.10;60.00;;;;;;5054353;28;20013;-65
2021/05/21 01:58:36;;;;;;;4.38;0.98;;;18.10;60.00;;;;;;5054072;28;20376;-64
2021/05/21 02:01:03;;;;;;;4.75;1.15;;;17.80;59.80;;;;;;5054312;28;20447;-64
2021/05/21 02:03:29;;;;;;;4.65;1.02;;;18.20;60.00;;;;;;5053980;28;20028;-64
2021/05/21 02:05:56;;;;;;;4.30;0.93;;;18.00;60.00;;;;;;5054285;28;20017;-65
2021/05/21 02:08:26;;;;;;;3.97;0.90;;;18.10;60.00;;;;;;5054037;28;20036;-65
2021/05/21 02:10:55;;;;;;;3.10;0.77;;;18.00;60.00;;;;;;5054098;28;20110;-65
2021/05/21 02:13:22;;;;;;;3.55;1.02;;;18.00;60.00;;;;;;5052477;28;20443;-65
2021/05/21 02:15:48;;;;;;;2.90;1.00;;;17.90;59.90;;;;;;5053675;28;20480;-65
2021/05/21 02:18:13;;;;;;;5.15;1.23;;;18.00;60.00;;;;;;5053834;28;20025;-64
2021/05/21 02:20:39;;;;;;;5.50;1.33;;;17.90;60.00;;;;;;5053861;28;20094;-65
2021/05/21 02:23:05;;;;;;;3.42;1.33;;;18.00;60.10;;;;;;5053881;28;20423;-65
2021/05/21 02:25:32;;;;;;;3.08;0.80;;;17.80;60.00;;;;;;5053886;28;20508;-64
2021/05/21 02:27:57;;;;;;;3.75;1.08;;;18.00;60.10;;;;;;5052217;28;20017;-65
2021/05/21 02:30:23;;;;;;;5.15;1.35;;;20.10;61.30;;;;;;5052191;28;20471;-64
2021/05/21 02:32:49;;;;;;;4.32;1.23;;;18.00;60.10;;;;;;5053530;28;20033;-64
2021/05/21 02:35:15;;;;;;;3.60;1.05;;;18.00;60.20;;;;;;5053383;28;20047;-64
2021/05/21 02:37:41;;;;;;;4.60;1.08;;;18.00;60.20;;;;;;5053587;28;20028;-64
2021/05/21 02:40:09;;;;;;;5.10;1.15;;;17.80;60.00;;;;;;5053318;28;20392;-64
2021/05/21 02:42:35;;;;;;;5.60;0.95;;;17.90;60.10;;;;;;5053158;28;20036;-64
2021/05/21 02:45:00;;;;;;;4.60;0.93;;;17.80;60.10;;;;;;5053145;28;20029;-64
2021/05/21 02:47:26;;;;;;;4.68;1.23;;;17.90;60.20;;;;;;5053327;28;20032;-64
2021/05/21 02:49:52;;;;;;;4.38;1.45;;;17.90;60.20;;;;;;5053096;28;20101;-64
2021/05/21 02:52:17;;;;;;;4.65;1.42;;;17.90;60.20;;;;;;5052931;28;20028;-64
2021/05/21 02:54:43;;;;;;;4.13;0.82;;;17.70;60.10;;;;;;5052951;28;20112;-64
2021/05/21 02:57:09;;;;;;;4.00;0.95;;;17.90;60.20;;;;;;5053267;28;20074;-64
2021/05/21 02:59:35;;;;;;;5.43;1.00;;;17.90;60.20;;;;;;5050922;28;20025;-64
2021/05/21 03:02:00;;;;;;;4.40;1.25;;;17.90;60.30;;;;;;5052874;28;20029;-64
2021/05/21 03:04:26;;;;;;;4.13;0.82;;;17.80;60.80;;;;;;5052652;28;20076;-64
2021/05/21 03:06:51;;;;;;;4.25;1.30;;;17.90;60.30;;;;;;5052781;28;20059;-64
2021/05/21 03:09:17;;;;;;;4.32;1.38;;;17.70;60.20;;;;;;5051424;28;20025;-64
2021/05/21 03:11:42;;;;;;;5.78;1.40;;;17.90;60.30;;;;;;5052979;28;20032;-64
2021/05/21 03:14:08;;;;;;;2.92;0.80;;;17.80;60.30;;;;;;5051489;28;20111;-64
2021/05/21 03:16:34;;;;;;;4.43;1.25;;;17.90;60.30;;;;;;5052909;28;20020;-64
2021/05/21 03:18:59;;;;;;;3.72;1.00;;;17.60;60.10;;;;;;5052658;28;20028;-65
2021/05/21 03:21:25;;;;;;;3.67;1.15;;;17.70;60.20;;;;;;5052894;28;20036;-64
2021/05/21 03:23:51;;;;;;;5.50;1.08;;;18.00;85.00;;;;;;5051339;28;20021;-64
2021/05/21 03:26:16;;;;;;;3.92;1.13;;;17.80;60.30;;;;;;5051300;28;20028;-64
2021/05/21 03:28:42;;;;;;;9.30;1.30;;;18.40;60.60;;;;;;5052817;28;20017;-64
2021/05/21 03:31:11;;;;;;;4.47;1.13;;;18.20;60.50;;;;;;5052533;28;20407;-65
2021/05/21 03:33:36;;;;;;;3.80;1.42;;;17.90;60.40;;;;;;5052733;28;20033;-65
2021/05/21 03:36:04;;;;;;;4.18;1.08;;;17.80;60.30;;;;;;5052485;28;20083;-65
2021/05/21 03:38:30;;;;;;;5.80;1.45;;;17.90;60.40;;;;;;5052852;28;20061;-65
2021/05/21 03:40:55;;;;;;;4.90;1.55;;;17.80;60.40;;;;;;5052552;28;20049;-65
2021/05/21 03:43:21;;;;;;;3.72;1.17;;;17.80;60.30;;;;;;5052383;28;20099;-65
2021/05/21 03:45:47;;;;;;;3.97;1.30;;;18.50;60.80;;;;;;5052468;28;20426;-65
2021/05/21 03:48:14;;;;;;;6.10;1.30;;;17.80;60.30;;;;;;5052265;28;20021;-64
2021/05/21 03:50:40;;;;;;;4.05;0.93;;;17.80;60.40;;;;;;5052640;28;20429;-64
2021/05/21 03:53:06;;;;;;;5.88;2.58;;;17.60;60.20;;;;;;5051039;28;20033;-64
2021/05/21 03:55:31;;;;;;;4.75;1.33;;;17.90;60.40;;;;;;5052533;28;20023;-64
2021/05/21 03:57:57;;;;;;;4.40;1.35;;;17.90;60.40;;;;;;5052174;28;20024;-64
2021/05/21 04:00:23;;;;;;;5.57;1.73;;;17.40;60.20;;;;;;5050829;28;20050;-64
2021/05/21 04:02:50;;;;;;;5.07;1.60;;;17.80;60.40;;;;;;5050863;28;20025;-65
2021/05/21 04:05:17;;;;;;;3.72;1.45;;;17.80;60.40;;;;;;5051961;28;20049;-65
2021/05/21 04:07:43;;;;;;;4.30;1.15;;;17.80;60.40;;;;;;5052395;28;20021;-65
2021/05/21 04:10:10;;;;;;;3.72;0.93;;;17.80;60.40;;;;;;5052034;28;20099;-64
2021/05/21 04:12:35;;;;;;;5.00;1.05;;;17.80;60.40;;;;;;5055238;28;20037;-65
2021/05/21 04:15:01;;;;;;;4.57;1.60;;;17.50;60.20;;;;;;5055916;28;20024;-65
2021/05/21 04:17:27;;;;;;;5.32;1.20;;;17.80;60.40;;;;;;5056197;28;20099;-65
2021/05/21 04:19:52;;;;;;;5.85;1.83;;;17.80;60.40;;;;;;5055860;28;20029;-64
2021/05/21 04:22:18;;;;;;;4.47;1.40;;;17.70;60.40;;;;;;5056167;28;20040;-65
2021/05/21 04:24:45;;;;;;;5.35;1.50;;;17.80;60.50;;;;;;5055781;28;20439;-65
2021/05/21 04:27:10;;;;;;;7.53;1.42;;;17.60;60.30;;;;;;5055929;28;20021;-64
2021/05/21 04:29:37;;;;;;;4.35;1.15;;;17.80;60.50;;;;;;5056028;28;20017;-65
2021/05/21 04:32:03;;;;;;;3.72;1.10;;;17.70;60.40;;;;;;5055625;28;20021;-65
2021/05/21 04:34:29;;;;;;;4.05;1.25;;;17.80;60.50;;;;;;5055653;28;20537;-64
2021/05/21 04:36:56;;;;;;;4.05;1.40;;;17.70;60.50;;;;;;5055698;28;20103;-65
2021/05/21 04:39:22;;;;;;;4.28;1.40;;;17.70;60.50;;;;;;5055802;28;20137;-65
2021/05/21 04:41:47;;;;;;;2.95;1.00;;;17.80;60.50;;;;;;5055459;28;20415;-65
2021/05/21 04:44:13;;;;;;;3.20;1.17;;;17.70;60.50;;;;;;5054302;28;20036;-65
2021/05/21 04:46:39;;;;;;;4.38;1.40;;;17.80;85.00;;;;;;5055359;28;20488;-65
2021/05/21 04:49:05;;;;;;;8.25;1.85;;;17.70;60.40;;;;;;5055417;28;20480;-65
2021/05/21 04:51:30;;;;;;;4.85;2.10;;;17.70;60.50;;;;;;5055556;28;20052;-65
2021/05/21 04:53:59;;;;;;;3.63;1.20;;;17.80;60.50;;;;;;5055628;28;20104;-65
2021/05/21 04:56:24;;;;;;;3.28;1.35;;;17.70;60.40;;;;;;5055609;28;20154;-66
2021/05/21 04:58:50;;;;;;;5.22;1.52;;;17.70;60.40;;;;;;5055283;28;20078;-65
2021/05/21 05:01:15;;;;;;;7.07;1.02;;;18.20;60.70;;;;;;5055250;28;20024;-65
2021/05/21 05:03:41;;;;;;;5.85;1.70;;;17.70;60.40;;;;;;5055036;28;20048;-65
2021/05/21 05:06:06;;;;;;;3.50;0.90;;;17.70;60.40;;;;;;5055176;28;20111;-65
2021/05/21 05:08:32;;;;;;;3.58;1.30;;;17.60;60.30;;;;;;5055108;28;20098;-65
2021/05/21 05:10:57;;;;;;;5.68;1.77;;;18.10;60.60;;;;;;5053959;28;20480;-65
2021/05/21 05:13:23;;;;;;;3.22;1.20;;;17.70;60.40;;;;;;5054924;28;20373;-65
2021/05/21 05:15:49;;;;;;;5.57;1.50;;;17.90;84.80;;;;;;5053651;28;20496;-63
2021/05/21 05:18:15;;;;;;;6.03;1.58;;;17.70;60.40;;;;;;5055107;28;20035;-64
2021/05/21 05:20:41;;;;;;;7.50;1.50;;;17.50;60.20;;;;;;5054953;28;20013;-64
2021/05/21 05:23:10;;;;;;;4.50;1.50;;;17.70;60.40;;;;;;5052885;28;20021;-64
2021/05/21 05:25:40;;;;;;;5.55;1.40;;;17.60;60.30;;;;;;5055104;28;20070;-64
2021/05/21 05:28:06;;;;;;;4.97;1.52;;;17.80;60.40;;;;;;5054907;28;20033;-64
2021/05/21 05:30:32;;;;;;;7.22;1.67;;;17.90;60.40;;;;;;5054732;28;20021;-64
2021/05/21 05:32:57;;;;;;;5.22;1.48;;;17.80;60.40;;;;;;5054916;28;20040;-64
2021/05/21 05:35:23;;;;;;;5.75;1.83;;;17.50;60.30;;;;;;5054657;28;20535;-65
2021/05/21 05:37:49;;;;;;;4.03;1.48;;;17.70;60.40;;;;;;5054672;28;20384;-64
2021/05/21 05:40:14;;;;;;;3.05;1.05;;;17.70;60.40;;;;;;5054594;28;20052;-63
2021/05/21 05:42:40;;;;;;;5.40;1.23;;;17.50;60.30;;;;;;5054523;28;20361;-64
2021/05/21 05:45:07;;;;;;;3.75;1.15;;;17.80;60.50;;;;;;5054822;28;20431;-64
2021/05/21 05:47:32;;;;;;;4.50;1.80;;;17.70;60.80;;;;;;5054354;28;20021;-64
2021/05/21 05:49:58;;;;;;;5.85;1.80;;;17.80;60.80;;;;;;5054749;28;20368;-64
2021/05/21 05:52:24;;;;;;;6.90;1.70;;;17.60;60.50;;;;;;5054247;28;20394;-62
2021/05/21 05:54:49;;;;;;;4.63;1.25;;;17.70;60.40;;;;;;5054292;28;20021;-63
2021/05/21 05:57:15;;;;;;;5.97;1.50;;;17.50;60.20;;;;;;5054535;28;20017;-62
2021/05/21 05:59:41;;;;;;;5.70;1.58;;;17.80;60.70;;;;;;5054176;28;20400;-67
2021/05/21 06:02:07;;;;;;;13.30;2.28;;;17.80;61.20;;;;;;5054486;28;20045;-66
2021/05/21 06:04:33;;;;;;;4.78;1.35;;;17.90;61.60;;;;;;5052875;28;20060;-66
2021/05/21 06:06:58;;;;;;;4.63;1.98;;;17.70;61.40;;;;;;5053015;28;20491;-66
2021/05/21 06:09:25;;;;;;;4.70;1.48;;;17.60;61.20;;;;;;5054039;28;20031;-66
2021/05/21 06:11:51;;;;;;;9.30;2.20;;;17.90;61.30;;;;;;5053906;28;20013;-65
2021/05/21 06:14:17;;;;;;;5.13;1.40;;;17.80;61.30;;;;;;5054285;28;20371;-66
2021/05/21 06:16:43;;;;;;;10.65;1.50;;;17.70;61.30;;;;;;5053868;28;20028;-64
2021/05/21 06:19:09;;;;;;;7.32;1.20;;;17.60;61.40;;;;;;5054150;28;20032;-64
2021/05/21 06:21:34;;;;;;;8.40;1.45;;;17.80;62.00;;;;;;5054042;28;20017;-62
2021/05/21 06:24:00;;;;;;;10.93;1.83;;;18.00;62.80;;;;;;5053771;28;20037;-63
2021/05/21 06:28:52;;;;;;;8.52;1.92;;;17.90;62.00;;;;;;5053842;28;20033;-62
2021/05/21 06:31:18;;;;;;;8.10;2.35;;;17.90;61.80;;;;;;5053016;28;20052;-64
2021/05/21 06:33:44;;;;;;;6.28;1.60;;;18.30;61.90;;;;;;5052885;28;20060;-63
2021/05/21 06:36:10;;;;;;;6.60;2.10;;;17.90;61.60;;;;;;5053353;28;20476;-64
2021/05/21 06:38:36;;;;;;;6.95;1.70;;;18.50;61.70;;;;;;5053320;28;20540;-64
2021/05/21 06:41:02;;;;;;;8.65;1.60;;;17.90;61.10;;;;;;5053367;28;20109;-64
2021/05/21 06:43:30;;;;;;;3.83;1.42;;;17.90;61.00;;;;;;5053353;28;20383;-64
2021/05/21 06:45:56;;;;;;;9.07;2.00;;;17.90;60.60;;;;;;5053262;28;20028;-64
2021/05/21 06:48:26;;;;;;;5.85;1.85;;;17.80;60.50;;;;;;5053508;28;20365;-64
2021/05/21 06:50:52;;;;;;;10.10;1.95;;;17.90;60.30;;;;;;5053647;28;20021;-62
2021/05/21 06:53:19;;;;;;;10.15;1.88;;;17.90;60.30;;;;;;5053179;28;20037;-64
2021/05/21 06:55:45;;;;;;;9.02;1.92;;;17.90;60.30;;;;;;5053403;28;20457;-65
2021/05/21 06:58:10;;;;;;;6.93;1.75;;;17.90;60.40;;;;;;5053587;28;20052;-65
2021/05/21 07:00:41;;;;;;;8.50;1.80;;;17.90;60.50;;;;;;5053063;28;20040;-65
2021/05/21 07:03:06;;;;;;;9.65;1.60;;;17.90;60.50;;;;;;5052984;28;20021;-66
2021/05/21 07:05:32;;;;;;;5.60;1.88;;;18.00;60.50;;;;;;5052951;28;20056;-66
2021/05/21 07:07:58;;;;;;;8.77;2.05;;;18.00;84.70;;;;;;5052955;28;20029;-66
2021/05/21 07:10:24;;;;;;;9.18;2.10;;;17.80;60.10;;;;;;5053193;28;20487;-66
2021/05/21 07:12:49;;;;;;;5.80;1.70;;;18.00;60.10;;;;;;5052844;28;20120;-66
2021/05/21 07:15:15;;;;;;;7.10;1.88;;;18.60;60.20;;;;;;5053148;28;20025;-66
2021/05/21 07:17:40;;;;;;;10.75;2.17;;;17.80;59.70;;;;;;5052797;28;20597;-66
2021/05/21 07:20:10;;;;;;;9.05;2.10;;;18.00;59.60;;;;;;5053055;28;20165;-65
2021/05/21 07:22:36;;;;;;;7.82;2.28;;;;;;;;;;5052883;28;20548;-66
2021/05/21 07:25:01;;;;;;;6.18;1.77;;;18.00;58.90;;;;;;5052983;28;20020;-66
2021/05/21 07:27:27;;;;;;;8.05;2.08;;;18.10;59.50;;;;;;5051527;28;20443;-66
2021/05/21 07:29:52;;;;;;;6.63;1.60;;;18.10;59.40;;;;;;5052647;28;20020;-66
2021/05/21 07:32:18;;;;;;;7.90;1.65;;;18.10;59.50;;;;;;5052780;28;20033;-64
2021/05/21 07:34:43;;;;;;;7.68;1.88;;;18.10;59.50;;;;;;5052570;28;20078;-66
2021/05/21 07:37:09;;;;;;;6.18;1.70;;;17.80;59.40;;;;;;5052552;28;20025;-66
2021/05/21 07:39:35;;;;;;;5.15;1.52;;;18.10;59.50;;;;;;5052779;28;20036;-65
2021/05/21 07:42:00;;;;;;;6.65;1.65;;;18.10;59.50;;;;;;5052824;28;20017;-67
2021/05/21 07:44:26;;;;;;;6.18;1.67;;;18.00;59.50;;;;;;5052490;28;20053;-65
2021/05/21 07:46:52;;;;;;;8.50;2.05;;;18.00;59.40;;;;;;5050740;28;20384;-65
2021/05/21 07:49:25;;;;;;;7.38;1.52;;;18.00;59.50;;;;;;5052725;28;20446;-66
2021/05/21 07:51:54;;;;;;;8.65;2.30;;;18.10;59.40;;;;;;5052350;28;20033;-66
2021/05/21 07:54:21;;;;;;;9.30;2.05;;;18.00;59.30;;;;;;5052373;28;20387;-66
2021/05/21 07:56:47;;;;;;;5.05;1.58;;;17.80;59.20;;;;;;5052298;28;20032;-66
2021/05/21 07:59:13;;;;;;;7.85;1.90;;;18.10;59.20;;;;;;5052678;28;20361;-65
2021/05/21 08:01:40;;;;;;;6.35;1.50;;;18.00;59.10;;;;;;5052560;28;20100;-66
2021/05/21 08:04:06;;;;;;;8.98;2.05;;;18.00;59.00;;;;;;5051009;28;20253;-65
2021/05/21 08:06:31;;;;;;;7.03;1.85;;;18.00;58.90;;;;;;5052268;28;20258;-65
2021/05/21 08:08:58;;;;;;;6.30;1.73;;;18.10;59.10;;;;;;5052519;28;20078;-65
2021/05/21 08:11:24;;;;;;;6.00;1.48;;;18.10;59.70;;;;;;5051015;28;20021;-65
2021/05/21 08:13:49;;;;;;;7.05;2.03;;;18.00;59.10;;;;;;5052419;28;20495;-65
2021/05/21 08:16:15;;;;;;;7.07;1.77;;;17.70;59.00;;;;;;5052481;28;20514;-65
2021/05/21 08:18:41;;;;;;;8.80;2.05;;;18.00;59.30;;;;;;5052410;28;20025;-65
2021/05/21 08:21:07;;;;;;;10.88;2.50;;;18.00;59.30;;;;;;5052031;28;20021;-65
2021/05/21 08:23:34;;;;;;;7.18;1.73;;;18.00;59.00;;;;;;5052398;28;20056;-65
2021/05/21 08:26:00;;;;;;;5.38;1.55;;;18.10;59.10;;;;;;5052394;28;20032;-65
2021/05/21 08:28:26;;;;;;;6.50;1.95;;;18.10;59.00;;;;;;5052197;28;20419;-65
2021/05/21 08:30:52;;;;;;;5.57;1.73;;;18.10;59.00;;;;;;5052355;28;20017;-65
2021/05/21 08:33:19;;;;;;;7.97;2.03;;;18.10;59.00;;;;;;5050764;28;20033;-65
2021/05/21 08:35:44;;;;;;;6.72;1.77;;;18.10;59.00;;;;;;5052066;28;20102;-65
2021/05/21 08:38:10;;;;;;;3.25;1.20;;;17.90;58.80;;;;;;5052315;28;20056;-66
2021/05/21 08:40:36;;;;;;;7.35;1.70;;;18.10;58.90;;;;;;5051046;28;20395;-66
2021/05/21 08:43:07;;;;;;;7.65;1.73;;;18.40;59.00;;;;;;5052078;28;20024;-65
2021/05/21 08:45:32;;;;;;;5.32;1.60;;;18.40;59.10;;;;;;5052029;28;20017;-65
2021/05/21 08:47:58;;;;;;;5.90;1.30;;;18.10;58.80;;;;;;5051897;28;20083;-65
2021/05/21 08:50:25;;;;;;;5.20;1.35;;;18.10;59.40;;;;;;5051902;28;20072;-65
2021/05/21 08:52:50;;;;;;;5.85;1.83;;;18.70;59.10;;;;;;5051698;28;20169;-66
2021/05/21 08:55:17;;;;;;;5.68;1.52;;;18.10;58.80;;;;;;5052088;28;20021;-65
2021/05/21 08:57:43;;;;;;;7.13;2.15;;;18.20;59.10;;;;;;5052403;28;20535;-66
2021/05/21 09:00:10;;;;;;;4.75;1.27;;;18.30;59.10;;;;;;5055374;28;20052;-66
2021/05/21 09:02:37;;;;;;;8.02;2.10;;;18.30;59.20;;;;;;5055400;28;20025;-66
2021/05/21 09:05:05;;;;;;;5.72;1.52;;;18.40;59.20;;;;;;5055176;28;20071;-66
2021/05/21 09:07:33;;;;;;;9.30;2.22;;;18.40;59.30;;;;;;5054890;28;20079;-65
2021/05/21 09:10:07;;;;;;;5.25;1.83;;;18.30;59.10;;;;;;5055604;28;20071;-65
2021/05/21 09:12:40;;;;;;;4.00;1.65;;;18.60;59.10;;;;;;5053946;28;20029;-65
2021/05/21 09:15:08;;;;;;;6.28;1.73;;;18.50;59.00;;;;;;5055327;28;20025;-65
2021/05/21 09:17:34;;;;;;;4.15;1.35;;;18.60;59.00;;;;;;5055276;28;20361;-66
2021/05/21 09:20:00;;;;;;;4.80;1.73;;;18.50;59.00;;;;;;5055082;28;20021;-65
2021/05/21 09:22:26;;;;;;;3.30;1.38;;;18.60;58.90;;;;;;5054987;28;20287;-66
2021/05/21 09:24:52;;;;;;;4.32;1.30;;;19.00;59.00;;;;;;5055253;28;20375;-65
2021/05/21 09:27:19;;;;;;;6.68;1.50;;;18.60;58.90;;;;;;5055198;28;20025;-65
2021/05/21 09:29:50;;;;;;;5.22;1.83;;;18.50;58.90;;;;;;5055154;28;20017;-65
2021/05/21 09:32:18;;;;;;;;;;;18.60;59.20;;;;;;5055485;28;20040;-66
2021/05/21 09:34:48;;;;;;;5.80;1.33;;;18.60;59.20;;;;;;5054745;28;20295;-65
2021/05/21 09:37:24;;;;;;;4.30;1.50;;;18.70;59.20;;;;;;5054762;28;20380;-65
2021/05/21 09:40:00;;;;;;;4.75;1.75;;;18.70;59.30;;;;;;5054490;28;20036;-65
2021/05/21 09:42:26;;;;;;;4.30;1.70;;;18.70;59.30;;;;;;5054632;28;20408;-65
2021/05/21 09:44:51;;;;;;;5.47;1.77;;;18.70;59.20;;;;;;5053359;28;20023;-65
2021/05/21 09:47:17;;;;;;;5.15;1.45;;;18.80;59.00;;;;;;5054323;28;20029;-65
2021/05/21 09:49:43;;;;;;;4.03;1.50;;;18.70;58.80;;;;;;5054475;28;20117;-65
2021/05/21 09:52:11;;;;;;;4.70;1.65;;;18.70;58.90;;;;;;5054591;28;20029;-64
2021/05/21 09:54:50;;;;;;;4.35;1.67;;;18.50;58.90;;;;;;5054653;28;20384;-66
2021/05/21 09:57:16;;;;;;;8.23;1.67;;;18.50;59.20;;;;;;5054602;28;20043;-67
2021/05/21 09:59:47;;;;;;;6.05;1.65;;;19.00;58.30;;;;;;5054510;28;20075;-62
2021/05/21 10:02:24;;;;;;;6.10;1.77;;;18.70;58.30;;;;;;5054168;28;20029;-67
2021/05/21 10:04:52;;;;;;;8.35;1.75;;;18.80;58.10;;;;;;5054054;28;20045;-66
2021/05/21 10:07:19;;;;;;;7.25;2.10;;;18.50;57.70;;;;;;5054349;28;20104;-65
2021/05/21 10:09:45;;;;;;;7.40;1.40;;;18.70;57.90;;;;;;5053844;28;20024;-67
2021/05/21 10:12:11;;;;;;;5.20;1.40;;;18.50;58.00;;;;;;5053856;28;20029;-67
2021/05/21 10:14:36;;;;;;;9.40;1.92;;;18.70;58.10;;;;;;5054238;28;20391;-66
2021/05/21 10:17:04;;;;;;;5.72;1.65;;;18.70;58.20;;;;;;5054173;28;20100;-66
2021/05/21 10:19:32;;;;;;;4.68;1.42;;;18.70;58.40;;;;;;5054070;28;20027;-66
2021/05/21 10:21:59;;;;;;;3.25;1.50;;;18.70;58.40;;;;;;5054113;28;20341;-67
2021/05/21 10:24:33;;;;;;;4.20;1.38;;;18.50;58.30;;;;;;5053991;28;20028;-65
2021/05/21 10:27:03;;;;;;;3.55;1.60;;;18.60;58.30;;;;;;5054072;28;20029;-66
2021/05/21 10:29:31;;;;;;;3.97;1.40;;;18.80;58.40;;;;;;5053924;28;20384;-66
2021/05/21 10:32:12;;;;;;;4.68;1.52;;;18.70;58.30;;;;;;5053758;28;20373;-65
2021/05/21 10:34:42;;;;;;;6.65;1.58;;;18.80;58.50;;;;;;5053510;28;20542;-66
2021/05/21 10:37:19;;;;;;;6.00;1.75;;;18.60;58.20;;;;;;5053721;28;20024;-65
2021/05/21 10:40:07;;;;;;;9.10;1.75;;;18.60;58.10;;;;;;5053476;28;20421;-65
2021/05/21 10:42:51;;;;;;;4.20;1.50;;;18.90;58.60;;;;;;5053453;28;20454;-66
2021/05/21 10:45:19;;;;;;;3.92;1.50;;;19.00;82.00;;;;;;5053293;28;20013;-65
2021/05/21 10:47:48;;;;;;;3.95;1.10;;;19.00;58.30;;;;;;5053604;28;20021;-65
2021/05/21 10:50:19;;;;;;;4.53;1.13;;;18.80;58.80;;;;;;5053260;28;20535;-67
2021/05/21 10:53:14;;;;;;;5.50;1.40;;;19.10;58.50;;;;;;5053436;28;20223;-66
2021/05/21 10:55:47;;;;;;;3.53;1.45;;;19.10;57.80;;;;;;5035163;28;20087;-65
2021/05/21 10:58:33;;;;;;;3.85;1.60;;;19.20;57.90;;;;;;5053146;28;20372;-65
2021/05/21 11:01:18;;;;;;;5.70;1.20;;;19.20;57.90;;;;;;5053106;28;20491;-65
2021/05/21 11:04:00;;;;;;;3.33;1.00;;;19.40;57.70;;;;;;5052906;28;20049;-66
2021/05/21 11:06:27;;;;;;;3.17;1.10;;;19.60;57.60;;;;;;5053418;28;20035;-66
2021/05/21 11:09:07;;;;;;;4.95;1.40;;;19.60;57.40;;;;;;5053042;28;20020;-65
2021/05/21 11:11:49;;;;;;;3.10;1.35;;;19.50;57.30;;;;;;5053006;28;20025;-65
2021/05/21 11:14:27;;;;;;;5.45;1.30;;;19.70;57.10;;;;;;5053281;28;20057;-65
2021/05/21 11:16:53;;;;;;;2.65;1.20;;;20.20;57.50;;;;;;5052880;28;20518;-66
2021/05/21 11:19:21;;;;;;;5.72;1.55;;;19.80;57.10;;;;;;5052859;28;20029;-65
2021/05/21 11:21:50;;;;;;;6.03;1.55;;;19.70;56.80;;;;;;5052439;28;20025;-65
2021/05/21 11:24:16;;;;;;;2.67;1.13;;;19.70;56.80;;;;;;5052892;28;20029;-65
2021/05/21 11:26:42;;;;;;;6.45;1.27;;;20.00;56.70;;;;;;5051561;28;20021;-65
2021/05/21 11:29:08;;;;;;;4.18;1.15;;;19.90;56.70;;;;;;5052836;28;20029;-66
2021/05/21 11:31:37;;;;;;;4.22;1.35;;;20.10;56.80;;;;;;5052980;28;20049;-66
2021/05/21 11:34:08;;;;;;;4.82;1.45;;;19.90;56.20;;;;;;5052603;28;20041;-65
2021/05/21 11:36:34;;;;;;;2.72;1.23;;;20.20;56.80;;;;;;5052923;28;20029;-65
2021/05/21 11:39:01;;;;;;;3.35;1.10;;;19.90;57.30;;;;;;5052630;28;20057;-66
2021/05/21 11:41:32;;;;;;;4.20;1.70;;;20.20;56.60;;;;;;5052581;28;20025;-66
2021/05/21 11:44:09;;;;;;;2.92;1.35;;;20.30;56.30;;;;;;5052418;28;20032;-66
2021/05/21 11:46:45;;;;;;;4.05;1.45;;;20.20;56.00;;;;;;5052430;28;20098;-65
2021/05/21 11:49:23;;;;;;;6.45;1.30;;;20.20;56.30;;;;;;5051326;28;20025;-66
2021/05/21 11:52:01;;;;;;;3.15;0.90;;;20.50;56.30;;;;;;5052443;28;20017;-65
2021/05/21 11:54:28;;;;;;;4.03;1.05;;;20.20;56.30;;;;;;5052435;28;20029;-65
2021/05/21 11:56:54;;;;;;;3.10;1.08;;;20.20;56.40;;;;;;5052435;28;20025;-66
2021/05/21 11:59:22;;;;;;;2.90;1.00;;;20.30;56.40;;;;;;5052316;28;20025;-66
2021/05/21 12:01:50;;;;;;;3.47;1.17;;;20.30;56.40;;;;;;5052345;28;20049;-65
2021/05/21 12:04:17;;;;;;;3.80;1.20;;;20.20;56.80;;;;;;5052025;28;20102;-67
2021/05/21 12:06:49;;;;;;;3.38;0.82;;;20.20;56.90;;;;;;5052459;28;20021;-66
2021/05/21 12:09:18;;;;;;;3.53;0.93;;;20.20;56.40;;;;;;5052220;28;20035;-65
2021/05/21 12:11:45;;;;;;;3.47;1.10;;;20.30;56.40;;;;;;5052207;28;20029;-67
2021/05/21 12:14:13;;;;;;;3.83;1.50;;;20.30;56.30;;;;;;5052172;28;20124;-67
2021/05/21 12:16:42;;;;;;;6.18;1.70;;;20.10;56.30;;;;;;5050782;28;20035;-67
2021/05/21 12:19:09;;;;;;;3.17;1.25;;;20.20;56.30;;;;;;5052307;28;20506;-66
2021/05/21 12:21:37;;;;;;;3.90;1.42;;;20.20;56.40;;;;;;5052089;28;20067;-66
2021/05/21 12:24:04;;;;;;;2.75;1.05;;;20.10;56.30;;;;;;5052461;28;20021;-65
2021/05/21 12:26:32;;;;;;;3.92;1.02;;;20.10;56.00;;;;;;5052009;28;20033;-65
2021/05/21 12:28:59;;;;;;;2.65;1.10;;;20.00;56.20;;;;;;5052091;28;20472;-66
2021/05/21 12:31:31;;;;;;;4.82;1.23;;;20.00;56.30;;;;;;5052140;28;20426;-65
2021/05/21 12:33:58;;;;;;;3.30;1.23;;;19.90;56.00;;;;;;5055859;28;20029;-66
2021/05/21 12:36:28;;;;;;;3.42;1.00;;;19.90;56.20;;;;;;5056129;28;20035;-65
2021/05/21 12:38:58;;;;;;;4.47;1.20;;;19.60;56.00;;;;;;5056096;28;20025;-66
2021/05/21 12:41:30;;;;;;;3.72;1.30;;;19.80;56.10;;;;;;5054873;28;20439;-66
2021/05/21 12:44:06;;;;;;;3.03;1.38;;;20.40;56.40;;;;;;5056027;28;20044;-66
2021/05/21 12:46:36;;;;;;;5.93;1.10;;;19.60;56.00;;;;;;5055868;28;20047;-66
2021/05/21 12:49:05;;;;;;;;;;;19.80;56.20;;;;;;5056147;28;20107;-67
2021/05/21 12:51:30;;;;;;;3.97;1.38;;;19.70;55.90;;;;;;5055632;28;20455;-67